Time;durP1;ratioP1;P1;durP2;ratioP2;P2;SDS_P1;SDS_P2;PMS_P1;PMS_P2;Temp;Humidity;BMP_temperature;BMP_pressure;BME280_temperature;BME280_humidity;BME280_pressure;Samples;Min_cycle;Max_cycle;Signal;HPM_P1;HPM_P2
2023/06/12 00:02:17;;;;;;;3.70;1.53;;;19.40;31.50;;;;;;5034035;28;20612;-78
2023/06/12 00:04:44;;;;;;;3.33;1.50;;;19.30;29.60;;;;;;5034295;28;20512;-80
2023/06/12 00:07:10;;;;;;;3.30;1.23;;;19.30;39.00;;;;;;5034209;28;20421;-80
2023/06/12 00:09:36;;;;;;;2.73;1.67;;;19.20;52.10;;;;;;5033824;28;20412;-79
2023/06/12 00:12:02;;;;;;;4.30;1.73;;;19.20;63.70;;;;;;5032876;28;20584;-79
2023/06/12 00:14:27;;;;;;;1.90;1.03;;;19.10;70.40;;;;;;5033996;28;20706;-80
2023/06/12 00:16:53;;;;;;;3.90;2.10;;;19.10;95.90;;;;;;5033931;28;20198;-80
2023/06/12 00:19:18;;;;;;;3.07;1.23;;;19.00;99.90;;;;;;5033960;28;20210;-79
2023/06/12 00:21:44;;;;;;;3.70;1.10;;;19.00;99.90;;;;;;5033829;28;20211;-80
2023/06/12 00:24:10;;;;;;;3.17;1.70;;;19.00;99.90;;;;;;5033521;28;20269;-79
2023/06/12 00:26:35;;;;;;;3.63;1.70;;;19.00;99.90;;;;;;5033746;28;20177;-80
2023/06/12 00:29:01;;;;;;;4.20;1.77;;;18.90;99.90;;;;;;5033689;28;20693;-79
2023/06/12 00:31:27;;;;;;;2.83;1.03;;;18.90;99.90;;;;;;5032310;28;20220;-79
2023/06/12 00:33:52;;;;;;;2.10;1.13;;;18.90;99.90;;;;;;5033610;28;20427;-81
2023/06/12 00:36:18;;;;;;;2.37;1.47;;;18.90;99.90;;;;;;5033547;28;20523;-80
2023/06/12 00:38:43;;;;;;;2.33;1.37;;;18.80;99.90;;;;;;5033392;28;20592;-80
2023/06/12 00:41:09;;;;;;;3.83;2.13;;;18.80;99.90;;;;;;5031939;28;20178;-80
2023/06/12 00:43:35;;;;;;;2.53;1.10;;;18.80;99.90;;;;;;5033447;28;20208;-80
2023/06/12 00:46:01;;;;;;;6.50;1.67;;;18.70;99.90;;;;;;5033372;28;20169;-81
2023/06/12 00:48:26;;;;;;;5.30;1.27;;;18.70;99.90;;;;;;5033391;28;20185;-80
2023/06/12 00:50:52;;;;;;;5.60;1.87;;;18.70;99.90;;;;;;5032038;28;20425;-80
2023/06/12 00:53:18;;;;;;;2.50;0.93;;;18.60;99.90;;;;;;5033419;28;20181;-79
2023/06/12 00:55:44;;;;;;;3.17;1.37;;;18.60;99.90;;;;;;5031844;28;20177;-80
2023/06/12 00:58:09;;;;;;;2.37;1.00;;;18.50;99.90;;;;;;5032097;28;20316;-80
2023/06/12 01:00:38;;;;;;;3.50;1.60;;;18.50;99.90;;;;;;5033160;28;20169;-77
2023/06/12 01:03:07;;;;;;;2.50;1.40;;;18.50;99.90;;;;;;5033260;28;20679;-77
2023/06/12 01:05:37;;;;;;;3.00;1.17;;;18.50;99.90;;;;;;5033317;28;20419;-77
2023/06/12 01:08:37;;;;;;;3.03;1.17;;;18.50;99.90;;;;;;5033280;28;20977;-78
2023/06/12 01:11:07;;;;;;;3.63;1.47;;;18.50;99.90;;;;;;5032851;28;20412;-78
2023/06/12 01:13:33;;;;;;;4.17;2.20;;;18.50;99.90;;;;;;5033086;28;20470;-77
2023/06/12 01:15:58;;;;;;;3.10;1.27;;;18.40;99.90;;;;;;5032544;28;20511;-78
2023/06/12 01:18:24;;;;;;;2.53;1.57;;;18.40;99.90;;;;;;5033102;28;20889;-78
2023/06/12 01:20:53;;;;;;;2.10;1.20;;;18.30;99.90;;;;;;5033076;28;20189;-77
2023/06/12 01:23:38;;;;;;;3.83;1.40;;;18.30;99.90;;;;;;5032954;28;20474;-78
2023/06/12 01:26:25;;;;;;;5.50;1.73;;;18.30;99.90;;;;;;4992054;28;20412;-78
2023/06/12 01:29:20;;;;;;;2.27;0.73;;;18.20;99.90;;;;;;5032990;28;20415;-78
2023/06/12 01:32:17;;;;;;;2.37;1.43;;;18.20;99.90;;;;;;5030642;28;20479;-77
2023/06/12 01:34:59;;;;;;;3.40;1.47;;;18.10;99.90;;;;;;5022217;28;20419;-77
2023/06/12 01:37:31;;;;;;;2.77;1.57;;;18.10;99.90;;;;;;5032894;28;20416;-77
2023/06/12 01:39:58;;;;;;;2.80;1.40;;;18.00;99.90;;;;;;5032490;28;20408;-77
2023/06/12 01:42:26;;;;;;;2.87;1.60;;;18.00;99.90;;;;;;5032747;28;20474;-77
2023/06/12 01:44:52;;;;;;;3.43;1.07;;;18.00;99.90;;;;;;5032772;28;20419;-77
2023/06/12 01:47:18;;;;;;;2.50;1.00;;;17.90;1.00;;;;;;5032751;28;20470;-77
2023/06/12 01:49:44;;;;;;;2.43;1.77;;;17.90;1.00;;;;;;5032727;28;20416;-77
2023/06/12 01:52:10;;;;;;;2.10;1.40;;;17.80;1.00;;;;;;5032766;28;20444;-77
2023/06/12 01:54:35;;;;;;;2.60;1.47;;;17.90;1.00;;;;;;5031138;28;20238;-77
2023/06/12 01:57:02;;;;;;;3.00;2.10;;;17.90;1.00;;;;;;5032663;28;20191;-77
2023/06/12 01:59:27;;;;;;;2.70;1.60;;;17.90;1.00;;;;;;5032734;28;20564;-77
2023/06/12 02:01:52;;;;;;;6.53;1.50;;;17.80;1.00;;;;;;5032570;28;20457;-77
2023/06/12 02:04:19;;;;;;;3.20;1.30;;;17.80;1.00;;;;;;5032697;28;20187;-76
2023/06/12 02:06:45;;;;;;;2.93;1.10;;;17.70;1.00;;;;;;5032617;28;20170;-76
2023/06/12 02:09:11;;;;;;;2.37;1.27;;;17.70;1.00;;;;;;5032359;28;20428;-77
2023/06/12 02:11:36;;;;;;;2.30;1.40;;;17.70;1.00;;;;;;5032620;28;20185;-77
2023/06/12 02:14:02;;;;;;;10.17;1.40;;;17.70;1.00;;;;;;5032623;28;20188;-79
2023/06/12 02:16:27;;;;;;;6.47;1.83;;;17.70;1.00;;;;;;5032572;28;20524;-76
2023/06/12 02:18:53;;;;;;;4.07;1.40;;;17.60;1.00;;;;;;5032506;28;20177;-76
2023/06/12 02:21:19;;;;;;;4.87;1.90;;;17.60;1.00;;;;;;5032461;28;20572;-82
2023/06/12 02:23:44;;;;;;;4.13;1.77;;;17.60;1.00;;;;;;5032086;28;20247;-76
2023/06/12 02:26:10;;;;;;;2.67;1.40;;;17.60;1.00;;;;;;5034018;28;20227;-76
2023/06/12 02:28:40;;;;;;;4.67;1.40;;;17.60;1.00;;;;;;5036224;28;20708;-76
2023/06/12 02:31:06;;;;;;;4.13;1.80;;;17.60;16.70;;;;;;5035977;28;20222;-76
2023/06/12 02:33:31;;;;;;;2.00;1.20;;;17.60;1.00;;;;;;5036086;28;20410;-76
2023/06/12 02:35:57;;;;;;;2.60;1.73;;;17.50;5.00;;;;;;5036045;28;20840;-77
2023/06/12 02:38:22;;;;;;;2.83;1.73;;;17.50;29.00;;;;;;5035934;28;20172;-77
2023/06/12 02:40:48;;;;;;;2.23;1.23;;;17.50;96.20;;;;;;5035576;28;20258;-76
2023/06/12 02:43:13;;;;;;;2.87;1.57;;;17.50;99.90;;;;;;5035851;28;20690;-77
2023/06/12 02:45:39;;;;;;;5.47;2.90;;;17.50;99.90;;;;;;5035876;28;20505;-77
2023/06/12 02:48:05;;;;;;;3.67;2.30;;;17.40;99.90;;;;;;5035728;28;20175;-77
2023/06/12 02:50:30;;;;;;;5.20;1.93;;;17.40;99.90;;;;;;5035686;28;20177;-76
2023/06/12 02:52:56;;;;;;;4.57;1.33;;;17.40;99.90;;;;;;5035667;28;20179;-77
2023/06/12 02:55:21;;;;;;;5.37;1.30;;;17.40;99.90;;;;;;5035303;28;20176;-77
2023/06/12 02:57:46;;;;;;;3.83;1.67;;;17.40;99.90;;;;;;5035638;28;20178;-86
2023/06/12 03:00:14;;;;;;;6.73;2.00;;;17.40;1.00;;;;;;5035467;28;20177;-78
2023/06/12 03:02:42;;;;;;;2.47;1.30;;;17.40;1.00;;;;;;5035429;28;20223;-77
2023/06/12 03:05:12;;;;;;;3.47;1.67;;;17.40;1.00;;;;;;5035446;28;20911;-77
2023/06/12 03:07:40;;;;;;;3.40;1.90;;;17.40;1.00;;;;;;5035534;28;20434;-77
2023/06/12 03:10:06;;;;;;;2.03;1.83;;;17.40;1.00;;;;;;5035069;28;20505;-77
2023/06/12 03:12:31;;;;;;;2.90;1.63;;;17.40;1.00;;;;;;5035224;28;20455;-79
2023/06/12 03:14:58;;;;;;;5.23;2.10;;;17.40;1.00;;;;;;5035190;28;20501;-77
2023/06/12 03:17:23;;;;;;;4.87;2.50;;;17.40;1.00;;;;;;5034815;28;20229;-77
2023/06/12 03:19:49;;;;;;;2.80;1.83;;;17.40;1.00;;;;;;5035223;28;20918;-77
2023/06/12 03:22:14;;;;;;;4.23;2.70;;;17.40;1.00;;;;;;5035051;28;20695;-76
2023/06/12 03:24:40;;;;;;;4.53;1.70;;;17.40;1.00;;;;;;5034844;28;20230;-77
2023/06/12 03:27:05;;;;;;;3.80;2.30;;;17.40;1.00;;;;;;5035094;28;20532;-77
2023/06/12 03:29:31;;;;;;;3.03;2.00;;;17.40;1.00;;;;;;5034984;28;20181;-77
2023/06/12 03:31:57;;;;;;;4.87;1.63;;;17.40;1.00;;;;;;5034767;28;20252;-79
2023/06/12 03:34:22;;;;;;;6.50;2.20;;;17.40;1.00;;;;;;5034936;28;20267;-77
2023/06/12 03:36:48;;;;;;;2.93;1.60;;;17.40;28.20;;;;;;5034824;28;20163;-77
2023/06/12 03:39:13;;;;;;;3.97;1.90;;;17.40;1.00;;;;;;5034030;28;20199;-82
2023/06/12 03:41:51;;;;;;;3.60;2.00;;;17.40;1.00;;;;;;5033493;28;20208;-77
2023/06/12 03:44:16;;;;;;;3.20;1.97;;;17.40;1.00;;;;;;5034904;28;20233;-76
2023/06/12 03:46:42;;;;;;;4.93;1.67;;;17.40;1.00;;;;;;5034707;28;20515;-83
2023/06/12 03:49:07;;;;;;;4.00;2.43;;;17.40;1.00;;;;;;5033957;28;20902;-77
2023/06/12 03:51:33;;;;;;;4.53;2.33;;;17.50;99.90;;;;;;5034629;28;20173;-81
2023/06/12 03:54:02;;;;;;;3.87;2.63;;;17.60;1.00;;;;;;5034216;28;20224;-77
2023/06/12 03:56:27;;;;;;;3.43;2.00;;;17.60;1.00;;;;;;5034547;28;20907;-77
2023/06/12 03:58:53;;;;;;;4.50;1.83;;;17.60;1.00;;;;;;5016080;28;20425;-83
2023/06/12 04:01:18;;;;;;;5.00;3.10;;;17.60;1.00;;;;;;5014697;28;20252;-76
2023/06/12 04:03:48;;;;;;;6.30;2.60;;;17.50;1.00;;;;;;5014560;28;20266;-76
2023/06/12 04:06:14;;;;;;;3.37;2.10;;;17.50;1.00;;;;;;5014569;28;20165;-76
2023/06/12 04:08:40;;;;;;;3.77;1.90;;;17.50;1.00;;;;;;5014210;28;20782;-76
2023/06/12 04:11:09;;;;;;;3.70;2.10;;;17.60;1.00;;;;;;5014421;28;20416;-76
2023/06/12 04:13:35;;;;;;;3.67;2.50;;;17.60;1.00;;;;;;5014449;28;20425;-76
2023/06/12 04:16:00;;;;;;;4.30;2.87;;;17.60;1.00;;;;;;5014350;28;20439;-76
2023/06/12 04:18:26;;;;;;;4.23;2.60;;;17.70;1.00;;;;;;5014354;28;20416;-77
2023/06/12 04:20:54;;;;;;;5.63;2.93;;;17.70;1.00;;;;;;5014275;28;20648;-77
2023/06/12 04:23:20;;;;;;;3.50;1.10;;;17.70;1.00;;;;;;5013787;28;20216;-77
2023/06/12 04:25:48;;;;;;;3.90;2.50;;;17.80;1.00;;;;;;5014233;28;20422;-77
2023/06/12 04:28:16;;;;;;;3.20;2.43;;;17.90;1.00;;;;;;5014141;28;20536;-78
2023/06/12 04:30:44;;;;;;;3.00;2.20;;;18.00;99.90;;;;;;5016464;28;20491;-78
2023/06/12 04:33:10;;;;;;;5.13;2.47;;;18.00;99.90;;;;;;5014084;28;20420;-77
2023/06/12 04:35:36;;;;;;;3.17;2.00;;;18.10;99.90;;;;;;5013936;28;20768;-77
2023/06/12 04:38:01;;;;;;;3.53;2.80;;;18.20;99.90;;;;;;5014009;28;20170;-77
2023/06/12 04:40:27;;;;;;;6.67;2.70;;;18.30;99.90;;;;;;5016034;28;20178;-77
2023/06/12 04:42:56;;;;;;;4.73;2.87;;;18.40;99.90;;;;;;5013812;28;20273;-78
2023/06/12 04:45:22;;;;;;;3.70;2.10;;;18.50;1.00;;;;;;5013899;28;20531;-77
2023/06/12 04:47:49;;;;;;;3.07;2.40;;;18.60;1.00;;;;;;5013764;28;20429;-78
2023/06/12 04:50:15;;;;;;;4.80;2.60;;;18.60;1.00;;;;;;5012883;28;20986;-78
2023/06/12 04:52:41;;;;;;;4.50;2.83;;;18.70;1.00;;;;;;5013758;28;20430;-77
2023/06/12 04:55:08;;;;;;;5.03;3.33;;;18.70;99.90;;;;;;5013408;28;20182;-78
2023/06/12 04:57:36;;;;;;;5.30;4.17;;;18.80;99.90;;;;;;5018696;28;20182;-77
2023/06/12 05:00:05;;;;;;;6.00;3.23;;;18.90;99.90;;;;;;5013602;28;20411;-77
2023/06/12 05:02:33;;;;;;;3.60;2.70;;;19.00;99.90;;;;;;5018304;28;20482;-77
2023/06/12 05:04:59;;;;;;;4.87;2.47;;;19.10;99.90;;;;;;5023042;28;20418;-77
2023/06/12 05:07:24;;;;;;;5.20;3.17;;;19.10;99.90;;;;;;5023780;28;20490;-77
2023/06/12 05:09:50;;;;;;;5.93;4.00;;;19.20;99.90;;;;;;5015546;28;20184;-78
2023/06/12 05:12:15;;;;;;;3.47;3.17;;;19.30;99.90;;;;;;5013064;28;20265;-77
2023/06/12 05:14:45;;;;;;;5.63;2.60;;;19.40;99.90;;;;;;5012075;28;20260;-77
2023/06/12 05:17:11;;;;;;;3.70;3.00;;;19.50;71.50;;;;;;5013319;28;20189;-77
2023/06/12 05:19:40;;;;;;;5.93;3.10;;;19.50;69.10;;;;;;5013367;28;20408;-76
2023/06/12 05:22:05;;;;;;;6.00;2.80;;;19.70;68.60;;;;;;5012325;28;20456;-76
2023/06/12 05:24:31;;;;;;;10.00;3.93;;;19.70;18.80;;;;;;5012809;28;20420;-77
2023/06/12 05:26:57;;;;;;;3.87;2.83;;;19.70;3.50;;;;;;5013289;28;20170;-77
2023/06/12 05:29:22;;;;;;;3.60;2.57;;;19.80;1.00;;;;;;5013344;28;20188;-77
2023/06/12 05:31:48;;;;;;;5.37;3.30;;;19.90;1.00;;;;;;5013152;28;20255;-77
2023/06/12 05:34:13;;;;;;;5.10;2.83;;;19.90;1.00;;;;;;5013289;28;20675;-78
2023/06/12 05:36:39;;;;;;;4.70;2.20;;;20.00;1.00;;;;;;5013154;28;20304;-78
2023/06/12 05:39:05;;;;;;;3.70;2.70;;;20.20;1.00;;;;;;5012900;28;20176;-78
2023/06/12 05:41:31;;;;;;;4.90;3.57;;;20.30;1.00;;;;;;5013184;28;20175;-78
2023/06/12 05:43:56;;;;;;;4.00;2.90;;;20.50;1.00;;;;;;5013045;28;20590;-79
2023/06/12 05:46:22;;;;;;;5.33;3.30;;;20.60;1.00;;;;;;5017375;28;20514;-78
2023/06/12 05:48:49;;;;;;;5.10;4.10;;;20.70;1.00;;;;;;5024197;28;20202;-79
2023/06/12 05:51:14;;;;;;;5.40;4.20;;;20.80;1.00;;;;;;5013285;28;20416;-78
2023/06/12 05:53:44;;;;;;;4.00;3.17;;;21.00;1.00;;;;;;5011486;28;20520;-79
2023/06/12 05:56:10;;;;;;;4.00;2.50;;;21.10;1.00;;;;;;5013032;28;20254;-80
2023/06/12 05:58:36;;;;;;;6.10;3.60;;;21.30;1.00;;;;;;5011705;28;20425;-78
2023/06/12 06:01:03;;;;;;;5.90;3.40;;;21.40;1.00;;;;;;5014436;28;20825;-79
2023/06/12 06:03:32;;;;;;;4.17;3.60;;;21.50;1.00;;;;;;5016835;28;20264;-77
2023/06/12 06:05:58;;;;;;;4.87;3.83;;;21.70;1.00;;;;;;5016905;28;20838;-77
2023/06/12 06:08:23;;;;;;;3.50;2.90;;;21.90;1.00;;;;;;5015225;28;20470;-78
2023/06/12 06:10:49;;;;;;;5.20;3.80;;;22.00;1.00;;;;;;5016726;28;20174;-78
2023/06/12 06:13:15;;;;;;;5.83;3.43;;;22.10;1.00;;;;;;5015451;28;20521;-78
2023/06/12 06:15:40;;;;;;;5.57;3.77;;;22.30;1.00;;;;;;5016687;28;20178;-77
2023/06/12 06:18:06;;;;;;;4.80;3.90;;;22.50;1.00;;;;;;5016540;28;20255;-77
2023/06/12 06:20:33;;;;;;;4.40;3.93;;;22.40;1.00;;;;;;5016620;28;20175;-78
2023/06/12 06:22:59;;;;;;;4.90;3.63;;;22.50;1.00;;;;;;5016162;28;21063;-77
2023/06/12 06:25:24;;;;;;;4.10;3.50;;;22.50;1.00;;;;;;5016344;28;20507;-78
2023/06/12 06:27:50;;;;;;;5.60;4.10;;;22.40;1.00;;;;;;5016393;28;20237;-78
2023/06/12 06:30:15;;;;;;;6.07;4.30;;;22.50;1.00;;;;;;5016159;28;20219;-79
2023/06/12 06:32:41;;;;;;;5.20;3.37;;;22.60;1.00;;;;;;5016298;28;20747;-78
2023/06/12 06:35:07;;;;;;;3.43;3.10;;;22.70;1.00;;;;;;5025558;28;20175;-78
2023/06/12 06:37:32;;;;;;;4.67;3.13;;;22.90;1.00;;;;;;5034784;28;20271;-78
2023/06/12 06:39:57;;;;;;;5.30;4.10;;;22.90;1.00;;;;;;5035605;28;20741;-78
2023/06/12 06:42:23;;;;;;;10.83;4.50;;;23.10;1.00;;;;;;5030486;28;20351;-78
2023/06/12 06:44:51;;;;;;;3.67;3.23;;;23.30;1.00;;;;;;5035693;28;20192;-77
2023/06/12 06:47:17;;;;;;;6.37;3.60;;;23.40;1.00;;;;;;5024939;28;20173;-78
2023/06/12 06:49:42;;;;;;;4.87;4.13;;;23.60;1.00;;;;;;5022398;28;20443;-77
2023/06/12 06:52:08;;;;;;;4.93;3.87;;;23.70;1.00;;;;;;5025311;28;20579;-77
2023/06/12 06:54:33;;;;;;;5.63;4.33;;;24.00;1.00;;;;;;5016427;28;20640;-78
2023/06/12 06:57:00;;;;;;;8.40;3.80;;;24.40;1.00;;;;;;5022145;28;20256;-78
2023/06/12 06:59:25;;;;;;;4.93;3.10;;;24.60;1.00;;;;;;5035529;28;20254;-78
2023/06/12 07:01:51;;;;;;;4.73;3.20;;;24.90;1.00;;;;;;5035355;28;20444;-77
2023/06/12 07:04:16;;;;;;;3.63;3.07;;;25.00;1.00;;;;;;5035535;28;20277;-78
2023/06/12 07:06:42;;;;;;;4.37;3.63;;;25.20;1.00;;;;;;5035505;28;20170;-77
2023/06/12 07:09:08;;;;;;;4.30;2.97;;;25.40;1.00;;;;;;5035139;28;20753;-78
2023/06/12 07:11:34;;;;;;;5.23;3.70;;;25.70;1.00;;;;;;5035150;28;20669;-77
2023/06/12 07:13:59;;;;;;;5.63;3.50;;;26.10;1.00;;;;;;5034520;28;20433;-78
2023/06/12 07:16:25;;;;;;;3.73;3.37;;;26.60;1.00;;;;;;5035338;28;20174;-77
2023/06/12 07:18:51;;;;;;;4.93;4.00;;;27.00;1.00;;;;;;5035343;28;20178;-77
2023/06/12 07:21:17;;;;;;;4.40;3.80;;;27.50;1.00;;;;;;5035286;28;20815;-78
2023/06/12 07:23:43;;;;;;;3.47;3.17;;;27.90;1.00;;;;;;5034680;28;20240;-78
2023/06/12 07:26:08;;;;;;;5.57;3.20;;;28.10;1.00;;;;;;5035115;28;20437;-78
2023/06/12 07:28:34;;;;;;;4.53;3.53;;;28.30;1.00;;;;;;5033821;28;20181;-78
2023/06/12 07:30:59;;;;;;;4.77;3.50;;;28.70;1.00;;;;;;5034887;28;20214;-78
2023/06/12 07:33:25;;;;;;;4.00;3.23;;;29.20;1.00;;;;;;5034999;28;20166;-78
2023/06/12 07:35:50;;;;;;;3.70;3.40;;;29.60;1.00;;;;;;5035012;28;20174;-78
2023/06/12 07:38:16;;;;;;;5.23;3.47;;;29.80;1.00;;;;;;5034636;28;20227;-78
2023/06/12 07:40:41;;;;;;;4.90;3.43;;;30.10;1.00;;;;;;5033507;28;20186;-79
2023/06/12 07:43:07;;;;;;;4.00;3.50;;;30.30;1.00;;;;;;5034754;28;20270;-78
2023/06/12 07:45:32;;;;;;;4.07;3.20;;;30.20;1.00;;;;;;5034679;28;20178;-78
2023/06/12 07:47:58;;;;;;;4.23;3.30;;;30.50;1.00;;;;;;5034828;28;20197;-79
2023/06/12 07:50:24;;;;;;;7.23;3.60;;;30.70;1.00;;;;;;5034682;28;20178;-78
2023/06/12 07:52:50;;;;;;;5.23;3.73;;;30.90;1.00;;;;;;5034386;28;20179;-78
2023/06/12 07:55:16;;;;;;;5.70;3.33;;;31.40;1.00;;;;;;5034564;28;20549;-78
2023/06/12 07:57:42;;;;;;;3.90;3.20;;;31.40;1.00;;;;;;5032363;28;20665;-78
2023/06/12 08:00:08;;;;;;;4.70;3.40;;;31.50;1.00;;;;;;5033349;28;20416;-78
2023/06/12 08:02:34;;;;;;;3.60;2.97;;;31.70;1.00;;;;;;5034656;28;20214;-79
2023/06/12 08:05:00;;;;;;;3.90;3.40;;;32.20;1.00;;;;;;5034471;28;20771;-78
2023/06/12 08:07:26;;;;;;;5.20;2.67;;;32.50;1.00;;;;;;5034464;28;20174;-79
2023/06/12 08:09:53;;;;;;;4.40;2.90;;;32.60;1.00;;;;;;5033962;28;20958;-79
2023/06/12 08:12:19;;;;;;;3.20;2.90;;;32.40;1.00;;;;;;5034204;28;20444;-78
2023/06/12 08:14:47;;;;;;;3.47;3.20;;;32.50;1.00;;;;;;5034156;28;20504;-78
2023/06/12 08:17:13;;;;;;;4.00;3.53;;;32.60;1.00;;;;;;5034180;28;20417;-79
2023/06/12 08:19:40;;;;;;;4.20;3.33;;;32.80;1.00;;;;;;5034233;28;20457;-78
2023/06/12 08:22:07;;;;;;;4.90;3.57;;;33.10;1.00;;;;;;5034032;28;20482;-77
2023/06/12 08:24:35;;;;;;;5.03;3.40;;;33.30;1.00;;;;;;5033588;28;20459;-76
2023/06/12 08:27:02;;;;;;;6.80;4.50;;;33.90;1.00;;;;;;5033971;28;20413;-77
2023/06/12 08:29:27;;;;;;;2.87;2.57;;;34.20;1.00;;;;;;5033983;28;20417;-76
2023/06/12 08:31:54;;;;;;;3.43;3.13;;;34.10;1.00;;;;;;5033697;28;21032;-78
2023/06/12 08:34:20;;;;;;;4.27;3.57;;;34.40;1.00;;;;;;5033967;28;20178;-78
2023/06/12 08:36:46;;;;;;;4.10;3.70;;;34.60;1.00;;;;;;5033856;28;20463;-79
2023/06/12 08:39:13;;;;;;;3.40;3.10;;;34.70;1.00;;;;;;5033400;28;20400;-78
2023/06/12 08:41:46;;;;;;;3.73;2.63;;;35.10;1.00;;;;;;5033718;28;20176;-78
2023/06/12 08:44:12;;;;;;;4.63;3.10;;;35.50;1.00;;;;;;5033747;28;20427;-79
2023/06/12 08:46:38;;;;;;;3.80;3.50;;;35.90;1.00;;;;;;5027785;28;21327;-80
2023/06/12 08:49:04;;;;;;;3.30;3.00;;;35.80;1.00;;;;;;5023410;28;20762;-77
2023/06/12 08:51:32;;;;;;;2.80;2.60;;;36.00;1.00;;;;;;5022947;28;20447;-78
2023/06/12 08:54:00;;;;;;;3.07;2.77;;;36.20;1.00;;;;;;5023858;28;20170;-78
2023/06/12 08:56:27;;;;;;;2.77;2.40;;;36.20;1.00;;;;;;5021409;28;20417;-79
2023/06/12 08:58:53;;;;;;;3.63;2.70;;;36.20;1.00;;;;;;5019900;28;20426;-77
2023/06/12 09:01:20;;;;;;;3.80;2.67;;;36.30;1.00;;;;;;5023678;28;20413;-78
2023/06/12 09:03:51;;;;;;;3.20;2.90;;;36.50;1.00;;;;;;5022225;28;20477;-76
2023/06/12 09:06:18;;;;;;;4.40;2.70;;;36.80;1.00;;;;;;5024491;28;20788;-77
2023/06/12 09:08:44;;;;;;;3.10;2.70;;;36.90;1.00;;;;;;5021475;28;20938;-77
2023/06/12 09:11:13;;;;;;;3.40;2.40;;;36.90;1.00;;;;;;5022568;28;20464;-77
2023/06/12 09:13:42;;;;;;;2.60;2.40;;;37.10;1.00;;;;;;5021572;28;20182;-78
2023/06/12 09:16:12;;;;;;;3.10;2.67;;;37.40;1.00;;;;;;5021071;28;20464;-79
2023/06/12 09:18:51;;;;;;;3.87;2.53;;;37.40;1.00;;;;;;5014321;28;20465;-78
2023/06/12 09:21:17;;;;;;;3.73;2.63;;;37.30;1.00;;;;;;5013409;28;20895;-77
2023/06/12 09:23:45;;;;;;;2.07;1.93;;;37.20;1.00;;;;;;5011631;28;20480;-77
2023/06/12 09:26:15;;;;;;;3.17;2.37;;;37.20;1.00;;;;;;5013348;28;20262;-77
2023/06/12 09:28:43;;;;;;;3.40;2.50;;;37.20;1.00;;;;;;5013395;28;20406;-77
2023/06/12 09:31:10;;;;;;;2.30;2.00;;;37.20;1.00;;;;;;5013131;28;20454;-77
2023/06/12 09:33:39;;;;;;;2.10;1.80;;;36.80;1.00;;;;;;5013437;28;20418;-77
2023/06/12 09:36:05;;;;;;;4.47;2.60;;;36.10;1.00;;;;;;5012814;28;20452;-77
2023/06/12 09:38:32;;;;;;;2.50;2.30;;;35.60;1.00;;;;;;5012959;28;20421;-77
2023/06/12 09:40:58;;;;;;;2.83;2.63;;;35.80;1.00;;;;;;5013260;28;20918;-77
2023/06/12 09:43:26;;;;;;;2.00;1.80;;;35.80;1.00;;;;;;5013064;28;20508;-78
2023/06/12 09:45:52;;;;;;;2.40;2.10;;;35.90;1.00;;;;;;5013154;28;20418;-77
2023/06/12 09:48:17;;;;;;;4.70;2.10;;;35.90;1.00;;;;;;5013100;28;20512;-78
2023/06/12 09:50:45;;;;;;;2.20;2.10;;;36.20;1.00;;;;;;5013119;28;20218;-78
2023/06/12 09:53:11;;;;;;;6.20;2.43;;;36.40;1.00;;;;;;5012821;28;20175;-80
2023/06/12 09:55:39;;;;;;;3.00;2.80;;;36.30;1.00;;;;;;5013037;28;20505;-77
2023/06/12 09:58:08;;;;;;;2.37;2.10;;;35.70;1.00;;;;;;5012926;28;20418;-77
2023/06/12 10:00:34;;;;;;;2.50;2.30;;;35.80;1.00;;;;;;5012925;28;20410;-77
2023/06/12 10:03:05;;;;;;;2.63;2.33;;;35.90;1.00;;;;;;5011702;28;20604;-77
2023/06/12 10:05:35;;;;;;;2.27;2.07;;;36.00;1.00;;;;;;5012938;28;20424;-77
2023/06/12 10:08:03;;;;;;;3.30;2.67;;;36.40;1.00;;;;;;5012636;28;20516;-78
2023/06/12 10:10:30;;;;;;;3.37;2.87;;;36.30;1.00;;;;;;5012905;28;20413;-77
2023/06/12 10:12:56;;;;;;;2.87;2.30;;;36.30;1.00;;;;;;5012915;28;20500;-77
2023/06/12 10:15:22;;;;;;;3.60;2.70;;;36.70;1.00;;;;;;5012872;28;20448;-77
2023/06/12 10:17:51;;;;;;;3.00;2.63;;;36.80;1.00;;;;;;5011699;28;20421;-77
2023/06/12 10:20:18;;;;;;;4.77;2.83;;;36.80;1.00;;;;;;5012885;28;20450;-77
2023/06/12 10:22:45;;;;;;;3.73;2.90;;;36.50;1.00;;;;;;5012351;28;20989;-80
2023/06/12 10:25:11;;;;;;;3.20;2.60;;;35.70;1.00;;;;;;5012767;28;20428;-77
2023/06/12 10:27:38;;;;;;;3.00;2.50;;;35.40;1.00;;;;;;5012243;28;20410;-80
2023/06/12 10:30:08;;;;;;;4.50;2.40;;;34.90;1.00;;;;;;5025998;28;20222;-80
2023/06/12 10:32:34;;;;;;;3.00;2.50;;;34.80;1.00;;;;;;5030213;28;20420;-82
2023/06/12 10:35:01;;;;;;;3.00;2.17;;;34.40;1.00;;;;;;5021178;28;20444;-81
2023/06/12 10:37:29;;;;;;;3.97;2.40;;;;;;;;;;5014938;28;20237;-81
2023/06/12 10:40:10;;;;;;;2.60;1.90;;;;;;;;;;5029192;28;20469;-79
2023/06/12 10:42:40;;;;;;;3.30;2.00;;;;;;;;;;5030905;28;21057;-82
2023/06/12 10:45:14;;;;;;;3.50;2.20;;;;;;;;;;5029646;28;20460;-80
2023/06/12 10:47:40;;;;;;;2.60;2.20;;;;;;;;;;5014121;28;20421;-79
2023/06/12 10:50:06;;;;;;;3.40;2.17;;;;;;;;;;5021218;28;20425;-79
2023/06/12 10:52:32;;;;;;;2.67;2.43;;;;;;;;;;5024540;28;20259;-79
2023/06/12 10:55:14;;;;;;;4.90;1.70;;;;;;;;;;5026361;28;20446;-82
2023/06/12 10:57:46;;;;;;;3.77;1.80;;;;;;;;;;5022924;28;20801;-85
2023/06/12 11:00:19;;;;;;;4.23;2.30;;;;;;;;;;5026920;28;20410;-87
2023/06/12 11:02:57;;;;;;;1.60;1.50;;;;;;;;;;5034550;28;20463;-87
2023/06/12 11:05:23;;;;;;;2.60;1.70;;;;;;;;;;5035178;28;20409;-81
2023/06/12 11:07:49;;;;;;;2.83;2.47;;;;;;;;;;5033320;28;20409;-81
2023/06/12 11:10:15;;;;;;;2.33;2.10;;;;;;;;;;5035183;28;20428;-81
2023/06/12 11:12:46;;;;;;;3.03;1.90;;;;;;;;;;5035022;28;20413;-88
2023/06/12 11:15:12;;;;;;;3.80;2.10;;;;;;;;;;5034386;28;20503;-87
2023/06/12 11:17:38;;;;;;;2.10;1.90;;;;;;;;;;5033645;28;20453;-80
2023/06/12 11:20:05;;;;;;;3.00;2.27;;;;;;;;;;5034586;28;20257;-80
2023/06/12 11:22:31;;;;;;;2.83;2.17;;;;;;;;;;5034244;28;20218;-81
2023/06/12 11:25:01;;;;;;;2.80;2.03;;;;;;;;;;5034653;28;20904;-85
2023/06/12 11:27:27;;;;;;;3.40;2.20;;;;;;;;;;5033155;28;20872;-82
2023/06/12 11:29:53;;;;;;;3.13;2.30;;;;;;;;;;5034294;28;20412;-83
2023/06/12 11:32:20;;;;;;;2.60;2.40;;;;;;;;;;5034702;28;20791;-82
2023/06/12 11:34:46;;;;;;;2.90;2.53;;;;;;;;;;5033289;28;20721;-81
2023/06/12 11:37:19;;;;;;;3.30;2.30;;;;;;;;;;5034162;28;20496;-81
2023/06/12 11:39:45;;;;;;;3.00;2.07;;;;;;;;;;5034419;28;20416;-82
2023/06/12 11:42:11;;;;;;;2.83;1.80;;;;;;;;;;5034086;28;20461;-79
2023/06/12 11:44:38;;;;;;;7.37;3.03;;;;;;;;;;5034345;28;20412;-87
2023/06/12 11:47:05;;;;;;;4.00;2.80;;;;;;;;;;5034298;28;20416;-82
2023/06/12 11:49:31;;;;;;;3.33;2.00;;;;;;;;;;5032755;28;20812;-84
2023/06/12 11:52:00;;;;;;;2.47;2.27;;;;;;;;;;5028066;28;20458;-80
2023/06/12 11:54:26;;;;;;;2.40;2.17;;;;;;;;;;5031390;28;20821;-78
2023/06/12 11:56:52;;;;;;;3.03;2.30;;;;;;;;;;5033765;28;20757;-78
2023/06/12 11:59:18;;;;;;;4.43;2.10;;;;;;;;;;5033691;28;20405;-79
2023/06/12 12:01:48;;;;;;;1.70;1.60;;;;;;;;;;5034193;28;20213;-78
2023/06/12 12:04:17;;;;;;;4.17;2.00;;;;;;;;;;5033974;28;20507;-81
2023/06/12 12:06:47;;;;;;;2.30;2.10;;;;;;;;;;5033721;28;20415;-82
2023/06/12 12:09:14;;;;;;;5.87;2.17;;;;;;;;;;5033760;28;20912;-80
2023/06/12 12:11:40;;;;;;;2.00;1.70;;;;;;;;;;5033749;28;20908;-83
2023/06/12 12:14:06;;;;;;;2.33;2.13;;;;;;;;;;5033515;28;20425;-77
2023/06/12 12:16:39;;;;;;;2.70;2.50;;;;;;;;;;5033577;28;20285;-79
2023/06/12 12:19:15;;;;;;;2.63;2.33;;;;;;;;;;5033862;28;20409;-78
2023/06/12 12:21:43;;;;;;;2.00;1.80;;;;;;;;;;5033519;28;20408;-78
2023/06/12 12:24:09;;;;;;;2.00;1.80;;;;;;;;;;5033224;28;20472;-78
2023/06/12 12:26:41;;;;;;;3.10;2.00;;;;;;;;;;5033852;28;20451;-78
2023/06/12 12:29:07;;;;;;;3.23;2.37;;;;;;;;;;5032828;28;20520;-78
2023/06/12 12:31:33;;;;;;;3.30;2.00;;;;;;;;;;5033517;28;20464;-77
2023/06/12 12:33:59;;;;;;;2.77;2.53;;;;;;;;;;5032516;28;20417;-80
2023/06/12 12:36:25;;;;;;;3.23;2.37;;;;;;;;;;5033719;28;20274;-77
2023/06/12 12:38:51;;;;;;;3.67;2.40;;;;;;;;;;5033497;28;20174;-78
2023/06/12 12:41:20;;;;;;;3.30;2.50;;;;;;;;;;5032590;28;20262;-77
2023/06/12 12:43:46;;;;;;;3.83;2.70;;;;;;;;;;5033186;28;20473;-77
2023/06/12 12:46:12;;;;;;;2.90;2.60;;;;;;;;;;5024459;28;20406;-77
2023/06/12 12:48:38;;;;;;;3.00;2.03;;;;;;;;;;5021435;28;20467;-80
2023/06/12 12:51:04;;;;;;;5.63;2.20;;;;;;;;;;5024630;28;20471;-80
2023/06/12 12:53:30;;;;;;;4.10;2.47;;;;;;;;;;5029720;28;20425;-79
2023/06/12 12:55:56;;;;;;;3.70;2.17;;;;;;;;;;5020404;28;20175;-80
2023/06/12 12:58:22;;;;;;;2.13;1.93;;;;;;;;;;5023181;28;20224;-80
2023/06/12 13:00:48;;;;;;;5.73;2.90;;;;;;;;;;5023029;28;20177;-81
2023/06/12 13:03:14;;;;;;;3.03;2.83;;;;;;;;;;5021499;28;20206;-79
2023/06/12 13:05:40;;;;;;;2.40;2.20;;;;;;;;;;5023386;28;20851;-78
2023/06/12 13:08:10;;;;;;;2.87;2.37;;;;;;;;;;5022416;28;20179;-78
2023/06/12 13:10:37;;;;;;;2.40;2.20;;;;;;;;;;5020839;28;20167;-78
2023/06/12 13:13:05;;;;;;;2.97;2.77;;;;;;;;;;5022824;28;20842;-79